Time,TemperatureF,DewpointF,PressureIn,WindDirection,WindDirectionDegrees,WindSpeedMPH,WindSpeedGustMPH,Humidity,HourlyPrecipIn,Conditions,Clouds,dailyrainin,SolarRadiationWatts/m^2,SoftwareType,DateUTC
2013-12-13 01:22:00,51.0,23.0,-100.00,East,100,11.0,13.0,33,-99.99,,,0.00,0.000000,,2013-12-13 09:22:00,
2013-12-13 01:33:00,51.0,23.0,-100.00,East,100,11.0,13.0,33,-99.99,,,0.00,0.000000,,2013-12-13 09:33:00,
2013-12-13 05:22:00,47.0,21.0,-100.00,East,92,10.0,13.0,35,-99.99,,,0.00,0.000000,,2013-12-13 13:22:00,
2013-12-13 05:32:00,47.0,21.0,-100.00,East,92,10.0,13.0,35,-99.99,,,0.00,0.000000,,2013-12-13 13:32:00,
2013-12-13 07:22:00,46.0,19.0,-100.00,East,99,14.0,17.0,34,-99.99,,,0.00,1.000000,,2013-12-13 15:22:00,
2013-12-13 07:33:00,46.0,19.0,-100.00,East,99,14.0,17.0,34,-99.99,,,0.00,1.000000,,2013-12-13 15:33:00,
2013-12-13 09:22:00,48.0,24.0,-100.00,East,94,10.0,15.0,39,0.00,,,0.00,180.000000,,2013-12-13 17:22:00,
2013-12-13 09:33:00,48.0,24.0,-100.00,East,94,10.0,15.0,39,0.00,,,0.00,180.000000,,2013-12-13 17:33:00,
2013-12-13 09:42:00,48.0,24.0,-100.00,East,94,10.0,15.0,39,0.00,,,0.00,180.000000,,2013-12-13 17:42:00,
2013-12-13 10:12:00,51.0,26.0,-100.00,East,99,8.0,14.0,38,0.00,,,0.00,364.000000,,2013-12-13 18:12:00,
2013-12-13 10:22:00,51.0,26.0,-100.00,East,99,8.0,14.0,38,0.00,,,0.00,364.000000,,2013-12-13 18:22:00,
2013-12-13 10:32:00,51.0,26.0,-100.00,East,99,8.0,14.0,38,0.00,,,0.00,364.000000,,2013-12-13 18:32:00,
2013-12-13 10:42:00,51.0,26.0,-100.00,East,99,8.0,14.0,38,0.00,,,0.00,364.000000,,2013-12-13 18:42:00,
2013-12-13 11:12:00,57.0,27.0,-100.00,North,-999,0.0,8.0,32,0.00,,,0.00,478.000000,,2013-12-13 19:12:00,
2013-12-13 11:21:00,57.0,27.0,-100.00,North,-999,0.0,8.0,32,0.00,,,0.00,478.000000,,2013-12-13 19:21:00,
2013-12-13 11:32:00,57.0,27.0,-100.00,North,-999,0.0,8.0,32,0.00,,,0.00,478.000000,,2013-12-13 19:32:00,
2013-12-13 11:42:00,57.0,27.0,-100.00,North,-999,0.0,8.0,32,0.00,,,0.00,478.000000,,2013-12-13 19:42:00,
2013-12-13 12:11:00,55.0,29.0,-100.00,West,268,9.0,13.0,36,0.00,,,-99.99,524.000000,,2013-12-13 20:11:00,
2013-12-13 12:22:00,55.0,29.0,-100.00,West,268,9.0,13.0,36,0.00,,,-99.99,524.000000,,2013-12-13 20:22:00,
2013-12-13 12:32:00,55.0,29.0,-100.00,West,268,9.0,13.0,36,0.00,,,-99.99,524.000000,,2013-12-13 20:32:00,
2013-12-13 12:42:00,55.0,29.0,-100.00,West,268,9.0,13.0,36,0.00,,,-99.99,524.000000,,2013-12-13 20:42:00,
2013-12-13 13:11:00,58.0,31.0,-100.00,West,272,10.0,14.0,35,0.00,,,-99.99,543.000000,,2013-12-13 21:11:00,
2013-12-13 13:21:00,58.0,31.0,-100.00,West,272,10.0,14.0,35,0.00,,,-99.99,543.000000,,2013-12-13 21:21:00,
2013-12-13 13:33:00,58.0,31.0,-100.00,West,272,10.0,14.0,35,0.00,,,-99.99,543.000000,,2013-12-13 21:33:00,
2013-12-13 13:43:00,58.0,31.0,-100.00,West,272,10.0,14.0,35,0.00,,,-99.99,543.000000,,2013-12-13 21:43:00,
2013-12-13 14:23:00,60.0,29.0,-100.00,West,276,11.0,15.0,31,0.00,,,0.00,487.000000,,2013-12-13 22:23:00,
2013-12-13 14:33:00,60.0,29.0,-100.00,West,276,11.0,15.0,31,0.00,,,0.00,487.000000,,2013-12-13 22:33:00,
2013-12-13 14:42:00,60.0,29.0,-100.00,West,276,11.0,15.0,31,0.00,,,0.00,487.000000,,2013-12-13 22:42:00,
2013-12-13 15:12:00,60.0,28.0,-100.00,West,263,10.0,15.0,30,0.00,,,0.00,375.000000,,2013-12-13 23:12:00,
2013-12-13 15:22:00,60.0,28.0,-100.00,West,263,10.0,15.0,30,0.00,,,0.00,375.000000,,2013-12-13 23:22:00,
2013-12-13 15:33:00,60.0,28.0,-100.00,West,263,10.0,15.0,30,0.00,,,0.00,375.000000,,2013-12-13 23:33:00,
2013-12-13 15:42:00,60.0,28.0,-100.00,West,263,10.0,15.0,30,0.00,,,0.00,375.000000,,2013-12-13 23:42:00,
2013-12-13 16:11:00,59.0,33.0,-100.00,West,259,8.0,13.0,38,0.00,,,0.00,226.000000,,2013-12-14 00:11:00,
2013-12-13 16:21:00,59.0,33.0,-100.00,West,259,8.0,13.0,38,0.00,,,0.00,226.000000,,2013-12-14 00:21:00,
2013-12-13 16:32:00,59.0,33.0,-100.00,West,259,8.0,13.0,38,0.00,,,0.00,226.000000,,2013-12-14 00:32:00,
2013-12-13 16:42:00,59.0,33.0,-100.00,West,259,8.0,13.0,38,0.00,,,0.00,226.000000,,2013-12-14 00:42:00,
2013-12-13 17:11:00,54.0,41.0,-100.00,WSW,246,5.0,9.0,62,0.00,,,0.00,57.000000,,2013-12-14 01:11:00,
2013-12-13 17:22:00,54.0,41.0,-100.00,WSW,246,5.0,9.0,62,0.00,,,0.00,57.000000,,2013-12-14 01:22:00,
2013-12-13 17:32:00,54.0,41.0,-100.00,WSW,246,5.0,9.0,62,0.00,,,0.00,57.000000,,2013-12-14 01:32:00,
2013-12-13 17:42:00,54.0,41.0,-100.00,WSW,246,5.0,9.0,62,0.00,,,0.00,57.000000,,2013-12-14 01:42:00,
2013-12-13 18:11:00,55.0,36.0,-100.00,North,-999,0.0,9.0,48,0.00,,,0.00,1.000000,,2013-12-14 02:11:00,
2013-12-13 18:21:00,55.0,36.0,-100.00,North,-999,0.0,9.0,48,0.00,,,0.00,1.000000,,2013-12-14 02:21:00,
2013-12-13 18:32:00,55.0,36.0,-100.00,North,-999,0.0,9.0,48,0.00,,,0.00,1.000000,,2013-12-14 02:32:00,
2013-12-13 18:42:00,55.0,36.0,-100.00,North,-999,0.0,9.0,48,0.00,,,0.00,1.000000,,2013-12-14 02:42:00,
2013-12-13 19:12:00,56.0,36.0,-100.00,East,96,15.0,18.0,47,0.00,,,0.00,0.000000,,2013-12-14 03:12:00,
2013-12-13 19:21:00,56.0,36.0,-100.00,East,96,15.0,18.0,47,0.00,,,0.00,0.000000,,2013-12-14 03:21:00,
2013-12-13 19:33:00,56.0,36.0,-100.00,East,96,15.0,18.0,47,0.00,,,0.00,0.000000,,2013-12-14 03:33:00,
2013-12-13 19:43:00,56.0,36.0,-100.00,East,96,15.0,18.0,47,0.00,,,0.00,0.000000,,2013-12-14 03:43:00,